sensor_id;sensor_type;location;lat;lon;timestamp;pressure;altitude;pressure_sealevel;temperature;humidity
84022;BME280;74108;48.636;9.492;2024-03-07T00:01:35;98314.31;;;6.33;87.97
84022;BME280;74108;48.636;9.492;2024-03-07T00:04:00;98310.16;;;6.26;88.56
84022;BME280;74108;48.636;9.492;2024-03-07T00:06:26;98306.56;;;6.20;87.78
84022;BME280;74108;48.636;9.492;2024-03-07T00:08:51;98310.63;;;6.10;88.03
84022;BME280;74108;48.636;9.492;2024-03-07T00:11:16;98312.00;;;6.06;88.40
84022;BME280;74108;48.636;9.492;2024-03-07T00:13:42;98308.19;;;6.08;88.31
84022;BME280;74108;48.636;9.492;2024-03-07T00:16:08;98311.38;;;6.10;88.81
84022;BME280;74108;48.636;9.492;2024-03-07T00:18:35;98311.63;;;6.02;88.93
84022;BME280;74108;48.636;9.492;2024-03-07T00:21:01;98314.47;;;5.88;88.53
84022;BME280;74108;48.636;9.492;2024-03-07T00:23:26;98315.47;;;5.87;87.66
84022;BME280;74108;48.636;9.492;2024-03-07T00:25:52;98312.28;;;5.65;87.32
84022;BME280;74108;48.636;9.492;2024-03-07T00:28:17;98313.06;;;5.72;87.64
84022;BME280;74108;48.636;9.492;2024-03-07T00:30:44;98308.25;;;5.69;87.80
84022;BME280;74108;48.636;9.492;2024-03-07T00:33:11;98313.47;;;5.82;87.23
84022;BME280;74108;48.636;9.492;2024-03-07T00:35:36;98308.88;;;5.84;86.64
84022;BME280;74108;48.636;9.492;2024-03-07T00:38:02;98308.06;;;5.90;86.39
84022;BME280;74108;48.636;9.492;2024-03-07T00:40:28;98306.06;;;5.86;86.11
84022;BME280;74108;48.636;9.492;2024-03-07T00:42:53;98306.25;;;5.71;86.96
84022;BME280;74108;48.636;9.492;2024-03-07T00:45:18;98317.66;;;5.77;86.86
84022;BME280;74108;48.636;9.492;2024-03-07T00:47:44;98308.28;;;5.89;86.04
84022;BME280;74108;48.636;9.492;2024-03-07T00:50:09;98301.88;;;5.91;85.99
84022;BME280;74108;48.636;9.492;2024-03-07T00:52:35;98303.66;;;5.91;86.25
84022;BME280;74108;48.636;9.492;2024-03-07T00:55:00;98301.66;;;5.93;86.13
84022;BME280;74108;48.636;9.492;2024-03-07T00:57:26;98301.44;;;5.81;86.01
84022;BME280;74108;48.636;9.492;2024-03-07T00:59:51;98292.06;;;5.87;86.08
84022;BME280;74108;48.636;9.492;2024-03-07T01:02:17;98296.25;;;5.75;86.00
84022;BME280;74108;48.636;9.492;2024-03-07T01:04:42;98297.69;;;5.71;86.31
84022;BME280;74108;48.636;9.492;2024-03-07T01:07:08;98297.25;;;5.67;87.02
84022;BME280;74108;48.636;9.492;2024-03-07T01:09:34;98297.50;;;5.59;87.09
84022;BME280;74108;48.636;9.492;2024-03-07T01:12:01;98302.09;;;5.63;86.58
84022;BME280;74108;48.636;9.492;2024-03-07T01:14:29;98291.88;;;5.62;86.18
84022;BME280;74108;48.636;9.492;2024-03-07T01:16:56;98297.09;;;5.68;86.50
84022;BME280;74108;48.636;9.492;2024-03-07T01:19:21;98297.50;;;5.52;86.90
84022;BME280;74108;48.636;9.492;2024-03-07T01:21:48;98295.31;;;5.36;86.84
84022;BME280;74108;48.636;9.492;2024-03-07T01:24:13;98290.72;;;5.32;86.08
84022;BME280;74108;48.636;9.492;2024-03-07T01:26:43;98283.94;;;5.24;86.56
84022;BME280;74108;48.636;9.492;2024-03-07T01:29:08;98280.75;;;5.16;86.81
84022;BME280;74108;48.636;9.492;2024-03-07T01:31:34;98283.53;;;5.01;86.99
84022;BME280;74108;48.636;9.492;2024-03-07T01:33:59;98281.91;;;4.87;86.67
84022;BME280;74108;48.636;9.492;2024-03-07T01:36:25;98274.88;;;4.74;87.15
84022;BME280;74108;48.636;9.492;2024-03-07T01:38:50;98276.09;;;4.72;87.37
84022;BME280;74108;48.636;9.492;2024-03-07T01:41:16;98278.06;;;4.63;87.15
84022;BME280;74108;48.636;9.492;2024-03-07T01:43:42;98283.59;;;4.47;87.14
84022;BME280;74108;48.636;9.492;2024-03-07T01:46:09;98275.66;;;4.49;86.45
84022;BME280;74108;48.636;9.492;2024-03-07T01:48:35;98274.63;;;4.50;87.36
84022;BME280;74108;48.636;9.492;2024-03-07T01:51:02;98277.63;;;4.47;87.34
84022;BME280;74108;48.636;9.492;2024-03-07T01:53:32;98273.06;;;4.49;87.28
84022;BME280;74108;48.636;9.492;2024-03-07T01:55:58;98270.03;;;4.45;87.72
84022;BME280;74108;48.636;9.492;2024-03-07T01:58:24;98266.47;;;4.46;86.98
84022;BME280;74108;48.636;9.492;2024-03-07T02:00:50;98259.66;;;4.45;87.27
84022;BME280;74108;48.636;9.492;2024-03-07T02:03:16;98258.47;;;4.41;87.52
84022;BME280;74108;48.636;9.492;2024-03-07T02:05:42;98253.81;;;4.23;88.20
84022;BME280;74108;48.636;9.492;2024-03-07T02:08:07;98253.81;;;4.23;87.57
84022;BME280;74108;48.636;9.492;2024-03-07T02:10:32;98250.94;;;4.05;86.85
84022;BME280;74108;48.636;9.492;2024-03-07T02:12:58;98249.69;;;3.88;87.08
84022;BME280;74108;48.636;9.492;2024-03-07T02:15:23;98251.06;;;3.84;86.83
84022;BME280;74108;48.636;9.492;2024-03-07T02:17:49;98248.50;;;3.84;88.00
84022;BME280;74108;48.636;9.492;2024-03-07T02:20:14;98243.47;;;3.83;87.35
84022;BME280;74108;48.636;9.492;2024-03-07T02:22:41;98247.34;;;3.93;87.91
84022;BME280;74108;48.636;9.492;2024-03-07T02:25:07;98241.50;;;3.85;87.68
84022;BME280;74108;48.636;9.492;2024-03-07T02:27:35;98248.22;;;3.73;87.47
84022;BME280;74108;48.636;9.492;2024-03-07T02:30:00;98241.22;;;3.73;87.47
84022;BME280;74108;48.636;9.492;2024-03-07T02:32:31;98238.19;;;3.57;87.39
84022;BME280;74108;48.636;9.492;2024-03-07T02:34:56;98240.75;;;3.57;86.85
84022;BME280;74108;48.636;9.492;2024-03-07T02:37:22;98242.75;;;3.54;86.93
84022;BME280;74108;48.636;9.492;2024-03-07T02:39:47;98232.56;;;3.53;87.06
84022;BME280;74108;48.636;9.492;2024-03-07T02:42:12;98228.78;;;3.55;87.03
84022;BME280;74108;48.636;9.492;2024-03-07T02:44:38;98233.00;;;3.57;87.28
84022;BME280;74108;48.636;9.492;2024-03-07T02:47:04;98237.78;;;3.60;87.36
84022;BME280;74108;48.636;9.492;2024-03-07T02:49:30;98228.41;;;3.59;87.23
84022;BME280;74108;48.636;9.492;2024-03-07T02:51:55;98233.78;;;3.57;86.75
84022;BME280;74108;48.636;9.492;2024-03-07T02:54:21;98232.19;;;3.56;86.22
84022;BME280;74108;48.636;9.492;2024-03-07T02:56:46;98226.38;;;3.47;86.77
84022;BME280;74108;48.636;9.492;2024-03-07T02:59:12;98234.28;;;3.39;86.74
84022;BME280;74108;48.636;9.492;2024-03-07T03:01:37;98226.31;;;3.41;87.98
84022;BME280;74108;48.636;9.492;2024-03-07T03:04:02;98230.13;;;3.45;87.19
84022;BME280;74108;48.636;9.492;2024-03-07T03:06:28;98228.28;;;3.39;87.14
84022;BME280;74108;48.636;9.492;2024-03-07T03:08:53;98229.66;;;3.35;87.11
84022;BME280;74108;48.636;9.492;2024-03-07T03:11:20;98227.28;;;3.33;86.61
84022;BME280;74108;48.636;9.492;2024-03-07T03:13:45;98225.63;;;3.26;86.49
84022;BME280;74108;48.636;9.492;2024-03-07T03:16:13;98220.69;;;3.31;86.12
84022;BME280;74108;48.636;9.492;2024-03-07T03:18:38;98226.84;;;3.30;86.35
84022;BME280;74108;48.636;9.492;2024-03-07T03:21:04;98219.28;;;3.28;86.06
84022;BME280;74108;48.636;9.492;2024-03-07T03:23:29;98218.50;;;3.34;86.23
84022;BME280;74108;48.636;9.492;2024-03-07T03:25:55;98224.94;;;3.38;87.12
84022;BME280;74108;48.636;9.492;2024-03-07T03:28:21;98217.00;;;3.46;86.61
84022;BME280;74108;48.636;9.492;2024-03-07T03:30:48;98232.69;;;3.38;86.68
84022;BME280;74108;48.636;9.492;2024-03-07T03:33:13;98220.72;;;3.37;86.91
84022;BME280;74108;48.636;9.492;2024-03-07T03:35:39;98222.88;;;3.34;86.44
84022;BME280;74108;48.636;9.492;2024-03-07T03:38:05;98222.06;;;3.27;86.02
84022;BME280;74108;48.636;9.492;2024-03-07T03:40:32;98222.66;;;3.29;86.48
84022;BME280;74108;48.636;9.492;2024-03-07T03:42:58;98212.31;;;3.29;86.61
84022;BME280;74108;48.636;9.492;2024-03-07T03:45:23;98214.34;;;3.33;87.21
84022;BME280;74108;48.636;9.492;2024-03-07T03:47:50;98222.13;;;3.40;87.00
84022;BME280;74108;48.636;9.492;2024-03-07T03:50:16;98213.81;;;3.51;86.45
84022;BME280;74108;48.636;9.492;2024-03-07T03:52:43;98224.66;;;3.61;85.44
84022;BME280;74108;48.636;9.492;2024-03-07T03:55:09;98211.25;;;3.58;85.13
84022;BME280;74108;48.636;9.492;2024-03-07T03:57:35;98207.16;;;3.70;85.75
84022;BME280;74108;48.636;9.492;2024-03-07T04:00:04;98217.97;;;3.80;85.92
84022;BME280;74108;48.636;9.492;2024-03-07T04:02:35;98215.38;;;3.80;85.19
84022;BME280;74108;48.636;9.492;2024-03-07T04:05:02;98208.22;;;3.82;85.24
84022;BME280;74108;48.636;9.492;2024-03-07T04:07:29;98205.03;;;3.86;85.29
84022;BME280;74108;48.636;9.492;2024-03-07T04:09:56;98201.84;;;3.84;85.10
84022;BME280;74108;48.636;9.492;2024-03-07T04:12:23;98206.00;;;3.85;84.98
84022;BME280;74108;48.636;9.492;2024-03-07T04:14:48;98207.44;;;3.94;85.05
84022;BME280;74108;48.636;9.492;2024-03-07T04:17:14;98206.47;;;3.95;84.36
84022;BME280;74108;48.636;9.492;2024-03-07T04:19:42;98207.88;;;4.04;84.56
84022;BME280;74108;48.636;9.492;2024-03-07T04:22:09;98210.03;;;3.94;84.14
84022;BME280;74108;48.636;9.492;2024-03-07T04:24:35;98206.28;;;3.56;84.44
84022;BME280;74108;48.636;9.492;2024-03-07T04:27:04;98205.34;;;3.64;84.79
84022;BME280;74108;48.636;9.492;2024-03-07T04:29:31;98204.00;;;3.81;84.79
84022;BME280;74108;48.636;9.492;2024-03-07T04:31:58;98199.63;;;3.81;84.10
84022;BME280;74108;48.636;9.492;2024-03-07T04:34:23;98197.81;;;3.75;84.65
84022;BME280;74108;48.636;9.492;2024-03-07T04:36:48;98203.19;;;3.80;84.07
84022;BME280;74108;48.636;9.492;2024-03-07T04:39:14;98196.69;;;3.91;84.13
84022;BME280;74108;48.636;9.492;2024-03-07T04:41:51;98187.75;;;4.13;84.27
84022;BME280;74108;48.636;9.492;2024-03-07T04:44:17;98195.38;;;4.21;83.81
84022;BME280;74108;48.636;9.492;2024-03-07T04:46:43;98195.19;;;4.29;83.64
84022;BME280;74108;48.636;9.492;2024-03-07T04:49:09;98189.38;;;4.20;83.46
84022;BME280;74108;48.636;9.492;2024-03-07T04:51:34;98196.56;;;4.12;83.09
84022;BME280;74108;48.636;9.492;2024-03-07T04:54:00;98183.00;;;4.16;84.08
84022;BME280;74108;48.636;9.492;2024-03-07T04:56:26;98193.75;;;4.20;82.76
84022;BME280;74108;48.636;9.492;2024-03-07T04:58:51;98185.59;;;4.16;84.02
84022;BME280;74108;48.636;9.492;2024-03-07T05:01:18;98190.97;;;4.21;83.43
84022;BME280;74108;48.636;9.492;2024-03-07T05:03:43;98194.59;;;4.27;83.83
84022;BME280;74108;48.636;9.492;2024-03-07T05:06:08;98193.75;;;4.20;83.76
84022;BME280;74108;48.636;9.492;2024-03-07T05:08:34;98188.41;;;4.28;84.24
84022;BME280;74108;48.636;9.492;2024-03-07T05:10:59;98200.56;;;4.21;83.21
84022;BME280;74108;48.636;9.492;2024-03-07T05:13:24;98195.56;;;4.26;83.84
84022;BME280;74108;48.636;9.492;2024-03-07T05:15:50;98197.97;;;4.21;83.01
84022;BME280;74108;48.636;9.492;2024-03-07T05:18:16;98197.16;;;4.14;82.06
84022;BME280;74108;48.636;9.492;2024-03-07T05:20:42;98208.09;;;4.09;83.95
84022;BME280;74108;48.636;9.492;2024-03-07T05:23:07;98205.09;;;4.06;83.60
84022;BME280;74108;48.636;9.492;2024-03-07T05:25:35;98205.06;;;3.99;83.00
84022;BME280;74108;48.636;9.492;2024-03-07T05:28:01;98199.03;;;3.86;82.94
84022;BME280;74108;48.636;9.492;2024-03-07T05:30:27;98200.09;;;3.98;83.66
84022;BME280;74108;48.636;9.492;2024-03-07T05:32:53;98200.59;;;3.80;82.99
84022;BME280;74108;48.636;9.492;2024-03-07T05:35:19;98203.84;;;3.89;82.85
84022;BME280;74108;48.636;9.492;2024-03-07T05:37:45;98203.28;;;3.93;82.64
84022;BME280;74108;48.636;9.492;2024-03-07T05:40:12;98199.63;;;3.81;83.03
84022;BME280;74108;48.636;9.492;2024-03-07T05:42:38;98195.63;;;3.79;83.34
84022;BME280;74108;48.636;9.492;2024-03-07T05:45:03;98195.81;;;3.71;83.01
84022;BME280;74108;48.636;9.492;2024-03-07T05:47:33;98194.97;;;3.64;84.20
84022;BME280;74108;48.636;9.492;2024-03-07T05:49:58;98197.38;;;3.65;83.76
84022;BME280;74108;48.636;9.492;2024-03-07T05:52:24;98200.09;;;3.57;83.13
84022;BME280;74108;48.636;9.492;2024-03-07T05:54:49;98202.91;;;3.62;83.89
84022;BME280;74108;48.636;9.492;2024-03-07T05:57:14;98203.94;;;3.61;83.47
84022;BME280;74108;48.636;9.492;2024-03-07T05:59:40;98208.59;;;3.38;84.58
84022;BME280;74108;48.636;9.492;2024-03-07T06:02:05;98208.38;;;3.39;84.34
84022;BME280;74108;48.636;9.492;2024-03-07T06:04:30;98199.78;;;3.32;84.22
84022;BME280;74108;48.636;9.492;2024-03-07T06:06:57;98199.25;;;3.16;84.73
84022;BME280;74108;48.636;9.492;2024-03-07T06:09:23;98198.53;;;3.22;84.88
84022;BME280;74108;48.636;9.492;2024-03-07T06:11:52;98201.63;;;3.38;85.21
84022;BME280;74108;48.636;9.492;2024-03-07T06:14:17;98198.06;;;3.46;85.41
84022;BME280;74108;48.636;9.492;2024-03-07T06:16:43;98201.47;;;3.53;85.64
84022;BME280;74108;48.636;9.492;2024-03-07T06:19:09;98197.50;;;3.57;85.11
84022;BME280;74108;48.636;9.492;2024-03-07T06:21:36;98196.13;;;3.54;84.59
84022;BME280;74108;48.636;9.492;2024-03-07T06:24:02;98194.75;;;3.59;84.87
84022;BME280;74108;48.636;9.492;2024-03-07T06:26:31;98199.31;;;3.57;84.49
84022;BME280;74108;48.636;9.492;2024-03-07T06:29:15;98191.09;;;3.46;84.28
84022;BME280;74108;48.636;9.492;2024-03-07T06:31:44;98193.53;;;3.54;84.88
84022;BME280;74108;48.636;9.492;2024-03-07T06:34:13;98200.88;;;3.51;84.53
84022;BME280;74108;48.636;9.492;2024-03-07T06:36:39;98195.09;;;3.49;85.16
84022;BME280;74108;48.636;9.492;2024-03-07T06:39:06;98200.94;;;3.30;83.98
84022;BME280;74108;48.636;9.492;2024-03-07T06:41:34;98191.16;;;3.25;85.20
84022;BME280;74108;48.636;9.492;2024-03-07T06:44:00;98198.63;;;3.41;85.33
84022;BME280;74108;48.636;9.492;2024-03-07T06:46:26;98203.50;;;3.58;84.11
84022;BME280;74108;48.636;9.492;2024-03-07T06:48:52;98201.16;;;3.69;83.54
84022;BME280;74108;48.636;9.492;2024-03-07T06:51:18;98201.59;;;3.73;83.64
84022;BME280;74108;48.636;9.492;2024-03-07T06:53:44;98201.00;;;3.71;83.40
84022;BME280;74108;48.636;9.492;2024-03-07T06:56:12;98201.06;;;3.49;83.49
84022;BME280;74108;48.636;9.492;2024-03-07T06:58:38;98203.13;;;3.26;84.29
84022;BME280;74108;48.636;9.492;2024-03-07T07:01:04;98198.19;;;3.31;84.34
84022;BME280;74108;48.636;9.492;2024-03-07T07:03:34;98207.09;;;3.22;84.32
84022;BME280;74108;48.636;9.492;2024-03-07T07:06:00;98199.13;;;2.96;85.41
84022;BME280;74108;48.636;9.492;2024-03-07T07:08:26;98205.28;;;2.95;85.34
84022;BME280;74108;48.636;9.492;2024-03-07T07:10:51;98208.34;;;3.05;85.74
84022;BME280;74108;48.636;9.492;2024-03-07T07:13:19;98206.94;;;3.03;84.77
84022;BME280;74108;48.636;9.492;2024-03-07T07:15:45;98204.69;;;3.21;85.12
84022;BME280;74108;48.636;9.492;2024-03-07T07:18:11;98207.22;;;3.14;85.29
84022;BME280;74108;48.636;9.492;2024-03-07T07:20:38;98206.00;;;3.38;84.53
84022;BME280;74108;48.636;9.492;2024-03-07T07:23:04;98193.47;;;3.48;84.85
84022;BME280;74108;48.636;9.492;2024-03-07T07:25:30;98199.94;;;3.59;84.52
84022;BME280;74108;48.636;9.492;2024-03-07T07:27:56;98199.38;;;3.70;84.91
84022;BME280;74108;48.636;9.492;2024-03-07T07:30:23;98196.22;;;3.74;83.94
84022;BME280;74108;48.636;9.492;2024-03-07T07:32:50;98195.28;;;3.47;85.15
84022;BME280;74108;48.636;9.492;2024-03-07T07:35:16;98198.19;;;3.72;84.53
84022;BME280;74108;48.636;9.492;2024-03-07T07:37:45;98191.00;;;3.68;84.28
84022;BME280;74108;48.636;9.492;2024-03-07T07:40:13;98191.66;;;3.89;83.88
84022;BME280;74108;48.636;9.492;2024-03-07T07:42:40;98190.69;;;3.90;83.73
84022;BME280;74108;48.636;9.492;2024-03-07T07:45:08;98189.97;;;3.62;85.37
84022;BME280;74108;48.636;9.492;2024-03-07T07:47:38;98187.91;;;3.44;85.53
84022;BME280;74108;48.636;9.492;2024-03-07T07:50:11;98188.38;;;3.61;86.25
84022;BME280;74108;48.636;9.492;2024-03-07T07:52:50;98187.22;;;3.64;86.19
84022;BME280;74108;48.636;9.492;2024-03-07T07:55:19;98183.97;;;4.02;85.26
84022;BME280;74108;48.636;9.492;2024-03-07T07:57:48;98179.03;;;4.27;84.71
84022;BME280;74108;48.636;9.492;2024-03-07T08:00:16;98181.38;;;4.09;85.01
84022;BME280;74108;48.636;9.492;2024-03-07T08:02:55;98177.03;;;4.42;84.30
84022;BME280;74108;48.636;9.492;2024-03-07T08:05:23;98179.84;;;4.54;83.56
84022;BME280;74108;48.636;9.492;2024-03-07T08:07:50;98175.06;;;4.57;83.33
84022;BME280;74108;48.636;9.492;2024-03-07T08:10:19;98176.47;;;4.53;83.26
84022;BME280;74108;48.636;9.492;2024-03-07T08:12:45;98178.84;;;4.55;83.70
84022;BME280;74108;48.636;9.492;2024-03-07T08:15:12;98176.06;;;4.50;84.07
84022;BME280;74108;48.636;9.492;2024-03-07T08:17:43;98178.66;;;4.56;83.37
84022;BME280;74108;48.636;9.492;2024-03-07T08:20:11;98175.84;;;4.90;82.69
84022;BME280;74108;48.636;9.492;2024-03-07T08:22:38;98171.66;;;4.96;81.64
84022;BME280;74108;48.636;9.492;2024-03-07T08:25:12;98174.69;;;5.00;80.95
84022;BME280;74108;48.636;9.492;2024-03-07T08:27:39;98172.50;;;4.90;80.49
84022;BME280;74108;48.636;9.492;2024-03-07T08:30:05;98171.47;;;4.97;81.12
84022;BME280;74108;48.636;9.492;2024-03-07T08:32:33;98169.28;;;5.01;80.66
84022;BME280;74108;48.636;9.492;2024-03-07T08:35:00;98169.88;;;5.03;80.23
84022;BME280;74108;48.636;9.492;2024-03-07T08:37:27;98170.09;;;5.02;80.19
84022;BME280;74108;48.636;9.492;2024-03-07T08:39:52;98169.88;;;4.96;80.26
84022;BME280;74108;48.636;9.492;2024-03-07T08:42:18;98171.66;;;5.09;80.05
84022;BME280;74108;48.636;9.492;2024-03-07T08:44:43;98171.84;;;5.08;80.22
84022;BME280;74108;48.636;9.492;2024-03-07T08:47:08;98169.28;;;4.94;80.03
84022;BME280;74108;48.636;9.492;2024-03-07T08:49:35;98167.66;;;5.00;79.51
84022;BME280;74108;48.636;9.492;2024-03-07T08:52:00;98164.69;;;5.03;80.20
84022;BME280;74108;48.636;9.492;2024-03-07T08:54:26;98160.88;;;5.12;81.11
84022;BME280;74108;48.636;9.492;2024-03-07T08:56:52;98162.81;;;5.36;79.45
84022;BME280;74108;48.636;9.492;2024-03-07T08:59:17;98162.59;;;5.38;79.79
84022;BME280;74108;48.636;9.492;2024-03-07T09:01:43;98159.25;;;5.11;80.58
84022;BME280;74108;48.636;9.492;2024-03-07T09:04:09;98151.84;;;5.28;80.16
84022;BME280;74108;48.636;9.492;2024-03-07T09:06:35;98156.56;;;5.57;78.06
84022;BME280;74108;48.636;9.492;2024-03-07T09:09:00;98162.16;;;5.54;78.68
84022;BME280;74108;48.636;9.492;2024-03-07T09:11:25;98154.22;;;5.36;79.37
84022;BME280;74108;48.636;9.492;2024-03-07T09:13:51;98152.38;;;5.49;79.24
84022;BME280;74108;48.636;9.492;2024-03-07T09:16:16;98150.56;;;5.56;79.84
84022;BME280;74108;48.636;9.492;2024-03-07T09:18:41;98150.50;;;5.69;78.99
84022;BME280;74108;48.636;9.492;2024-03-07T09:21:07;98147.41;;;5.92;78.89
84022;BME280;74108;48.636;9.492;2024-03-07T09:23:34;98138.06;;;6.22;78.29
84022;BME280;74108;48.636;9.492;2024-03-07T09:25:59;98136.03;;;6.24;78.49
84022;BME280;74108;48.636;9.492;2024-03-07T09:28:25;98138.34;;;6.39;77.98
84022;BME280;74108;48.636;9.492;2024-03-07T09:30:51;98141.22;;;6.56;76.81
84022;BME280;74108;48.636;9.492;2024-03-07T09:33:17;98138.72;;;6.67;77.33
84022;BME280;74108;48.636;9.492;2024-03-07T09:35:45;98137.81;;;6.30;77.90
84022;BME280;74108;48.636;9.492;2024-03-07T09:38:11;98137.34;;;6.65;77.04
84022;BME280;74108;48.636;9.492;2024-03-07T09:40:37;98136.59;;;6.82;76.03
84022;BME280;74108;48.636;9.492;2024-03-07T09:43:03;98135.31;;;6.91;76.67
84022;BME280;74108;48.636;9.492;2024-03-07T09:45:30;98137.63;;;6.81;76.71
84022;BME280;74108;48.636;9.492;2024-03-07T09:47:57;98143.44;;;7.01;75.86
84022;BME280;74108;48.636;9.492;2024-03-07T09:50:24;98139.50;;;6.92;75.04
84022;BME280;74108;48.636;9.492;2024-03-07T09:52:53;98135.81;;;7.00;75.79
84022;BME280;74108;48.636;9.492;2024-03-07T09:55:19;98136.25;;;6.97;74.31
84022;BME280;74108;48.636;9.492;2024-03-07T09:57:49;98139.69;;;7.16;74.48
84022;BME280;74108;48.636;9.492;2024-03-07T10:00:20;98132.75;;;6.85;74.68
84022;BME280;74108;48.636;9.492;2024-03-07T10:03:07;98130.88;;;6.49;75.96
84022;BME280;74108;48.636;9.492;2024-03-07T10:05:33;98131.34;;;6.40;77.75
84022;BME280;74108;48.636;9.492;2024-03-07T10:07:59;98135.28;;;6.49;77.68
84022;BME280;74108;48.636;9.492;2024-03-07T10:10:25;98127.94;;;6.64;75.94
84022;BME280;74108;48.636;9.492;2024-03-07T10:12:51;98134.09;;;6.69;73.25
84022;BME280;74108;48.636;9.492;2024-03-07T10:15:27;98137.81;;;6.55;73.85
84022;BME280;74108;48.636;9.492;2024-03-07T10:17:53;98126.50;;;7.11;69.50
84022;BME280;74108;48.636;9.492;2024-03-07T10:20:19;98128.38;;;7.58;69.44
84022;BME280;74108;48.636;9.492;2024-03-07T10:22:48;98116.56;;;8.03;68.13
84022;BME280;74108;48.636;9.492;2024-03-07T10:25:17;98112.84;;;8.11;66.13
84022;BME280;74108;48.636;9.492;2024-03-07T10:27:43;98114.03;;;7.97;67.27
84022;BME280;74108;48.636;9.492;2024-03-07T10:30:09;98111.00;;;8.29;65.08
84022;BME280;74108;48.636;9.492;2024-03-07T10:32:35;98114.03;;;8.79;65.97
84022;BME280;74108;48.636;9.492;2024-03-07T10:35:01;98106.75;;;9.04;66.00
84022;BME280;74108;48.636;9.492;2024-03-07T10:37:28;98099.44;;;9.18;66.90
84022;BME280;74108;48.636;9.492;2024-03-07T10:39:54;98101.91;;;9.48;63.26
84022;BME280;74108;48.636;9.492;2024-03-07T10:42:20;98102.59;;;9.83;61.88
84022;BME280;74108;48.636;9.492;2024-03-07T10:44:50;98094.72;;;9.55;63.16
84022;BME280;74108;48.636;9.492;2024-03-07T10:47:21;98102.03;;;9.41;61.71
84022;BME280;74108;48.636;9.492;2024-03-07T10:50:13;98101.72;;;9.14;66.94
84022;BME280;74108;48.636;9.492;2024-03-07T10:52:49;98101.53;;;8.93;66.88
84022;BME280;74108;48.636;9.492;2024-03-07T10:55:41;98102.63;;;9.20;66.46
84022;BME280;74108;48.636;9.492;2024-03-07T11:00:45;98093.88;;;9.94;61.90
84022;BME280;74108;48.636;9.492;2024-03-07T11:03:11;98093.88;;;9.94;61.53
84022;BME280;74108;48.636;9.492;2024-03-07T11:05:39;98090.56;;;9.99;60.77
84022;BME280;74108;48.636;9.492;2024-03-07T11:08:05;98089.94;;;10.08;62.30
84022;BME280;74108;48.636;9.492;2024-03-07T11:10:37;98086.59;;;9.96;63.03
84022;BME280;74108;48.636;9.492;2024-03-07T11:13:04;98084.03;;;9.84;64.41
84022;BME280;74108;48.636;9.492;2024-03-07T11:15:30;98074.50;;;9.95;63.48
84022;BME280;74108;48.636;9.492;2024-03-07T11:17:56;98074.81;;;9.82;63.33
84022;BME280;74108;48.636;9.492;2024-03-07T11:20:36;98075.66;;;9.31;62.75
84022;BME280;74108;48.636;9.492;2024-03-07T11:25:53;98073.19;;;9.13;63.96
84022;BME280;74108;48.636;9.492;2024-03-07T11:28:19;98071.94;;;9.15;65.27
84022;BME280;74108;48.636;9.492;2024-03-07T11:30:45;98064.66;;;9.17;63.79
84022;BME280;74108;48.636;9.492;2024-03-07T11:33:11;98058.63;;;9.17;65.00
84022;BME280;74108;48.636;9.492;2024-03-07T11:35:39;98062.41;;;9.09;65.42
84022;BME280;74108;48.636;9.492;2024-03-07T11:38:07;98062.19;;;8.99;65.78
84022;BME280;74108;48.636;9.492;2024-03-07T11:43:04;98043.09;;;8.99;65.40
84022;BME280;74108;48.636;9.492;2024-03-07T11:45:30;98046.66;;;9.33;64.32
84022;BME280;74108;48.636;9.492;2024-03-07T11:48:04;98038.59;;;10.07;61.11
84022;BME280;74108;48.636;9.492;2024-03-07T11:50:33;98028.50;;;9.82;62.60
84022;BME280;74108;48.636;9.492;2024-03-07T11:53:03;98027.84;;;9.75;61.44
84022;BME280;74108;48.636;9.492;2024-03-07T11:55:36;98030.13;;;9.55;61.67
84022;BME280;74108;48.636;9.492;2024-03-07T11:58:18;98027.75;;;10.32;61.31
84022;BME280;74108;48.636;9.492;2024-03-07T12:00:46;98017.97;;;11.20;57.26
84022;BME280;74108;48.636;9.492;2024-03-07T12:03:13;98010.09;;;10.99;58.66
84022;BME280;74108;48.636;9.492;2024-03-07T12:05:43;98006.94;;;10.58;59.22
84022;BME280;74108;48.636;9.492;2024-03-07T12:08:10;98008.69;;;10.03;59.72
84022;BME280;74108;48.636;9.492;2024-03-07T12:10:37;98012.41;;;9.46;61.17
84022;BME280;74108;48.636;9.492;2024-03-07T12:13:04;98015.38;;;9.66;62.33
84022;BME280;74108;48.636;9.492;2024-03-07T12:15:30;98013.72;;;9.76;59.93
84022;BME280;74108;48.636;9.492;2024-03-07T12:17:55;98010.25;;;9.43;59.25
84022;BME280;74108;48.636;9.492;2024-03-07T12:20:23;98007.81;;;9.25;60.56
84022;BME280;74108;48.636;9.492;2024-03-07T12:23:01;98007.13;;;9.57;61.26
84022;BME280;74108;48.636;9.492;2024-03-07T12:25:28;97988.34;;;10.60;58.76
84022;BME280;74108;48.636;9.492;2024-03-07T12:30:54;97998.88;;;9.37;61.70
84022;BME280;74108;48.636;9.492;2024-03-07T12:33:24;97999.47;;;9.39;63.16
84022;BME280;74108;48.636;9.492;2024-03-07T12:35:54;97996.47;;;9.47;62.81
84022;BME280;74108;48.636;9.492;2024-03-07T12:38:25;97992.59;;;9.22;63.50
84022;BME280;74108;48.636;9.492;2024-03-07T12:41:09;97993.44;;;8.99;64.88
84022;BME280;74108;48.636;9.492;2024-03-07T12:43:44;97994.88;;;9.18;64.40
84022;BME280;74108;48.636;9.492;2024-03-07T12:46:13;97988.44;;;9.09;64.46
84022;BME280;74108;48.636;9.492;2024-03-07T12:48:42;97990.13;;;9.03;65.06
84022;BME280;74108;48.636;9.492;2024-03-07T12:51:10;97989.38;;;8.91;65.26
84022;BME280;74108;48.636;9.492;2024-03-07T12:53:41;97985.53;;;9.22;63.96
84022;BME280;74108;48.636;9.492;2024-03-07T12:56:07;97988.81;;;9.29;64.72
84022;BME280;74108;48.636;9.492;2024-03-07T12:58:34;97983.47;;;9.24;64.54
84022;BME280;74108;48.636;9.492;2024-03-07T13:01:01;97978.13;;;9.02;65.86
84022;BME280;74108;48.636;9.492;2024-03-07T13:03:27;97978.19;;;9.07;65.18
84022;BME280;74108;48.636;9.492;2024-03-07T13:05:58;97977.16;;;9.20;65.34
84022;BME280;74108;48.636;9.492;2024-03-07T13:08:27;97976.03;;;9.16;65.33
84022;BME280;74108;48.636;9.492;2024-03-07T13:10:55;97972.00;;;9.25;64.35
84022;BME280;74108;48.636;9.492;2024-03-07T13:13:21;97977.00;;;9.27;64.23
84022;BME280;74108;48.636;9.492;2024-03-07T13:15:46;97969.56;;;9.35;64.05
84022;BME280;74108;48.636;9.492;2024-03-07T13:18:12;97975.53;;;9.47;63.68
84022;BME280;74108;48.636;9.492;2024-03-07T13:20:38;97979.41;;;9.45;62.91